createdAt,value
2023-01-01T00:00:29.103Z,16.79
2023-01-01T00:01:30.677Z,16.73
2023-01-01T00:02:36.751Z,16.70
2023-01-01T00:03:38.754Z,16.68
2023-01-01T00:04:40.271Z,16.69
2023-01-01T00:05:41.757Z,16.71
2023-01-01T00:06:43.666Z,16.74
2023-01-01T00:07:45.144Z,16.74
2023-01-01T00:08:46.659Z,16.77
2023-01-01T00:10:06.859Z,16.78
2023-01-01T00:11:08.658Z,16.79
2023-01-01T00:12:10.167Z,16.79
2023-01-01T00:13:12.755Z,16.77
2023-01-01T00:14:14.237Z,16.80
2023-01-01T00:15:15.701Z,16.80
2023-01-01T00:16:17.205Z,16.82
2023-01-01T00:17:18.747Z,16.83
2023-01-01T00:18:20.255Z,16.85
2023-01-01T00:19:21.858Z,16.83
2023-01-01T00:20:23.616Z,16.84
2023-01-01T00:21:25.091Z,16.85
2023-01-01T00:23:48.313Z,16.86
2023-01-01T00:24:49.788Z,16.86
2023-01-01T00:25:51.309Z,16.85
2023-01-01T00:26:52.772Z,16.85
2023-01-01T00:27:54.382Z,16.82
2023-01-01T00:28:55.910Z,16.77
2023-01-01T00:29:57.413Z,16.76
2023-01-01T00:30:58.955Z,16.76
2023-01-01T00:32:00.569Z,16.78
2023-01-01T00:33:02.140Z,16.81
2023-01-01T00:34:03.698Z,16.74
2023-01-01T00:35:05.395Z,16.67
2023-01-01T00:36:10.277Z,16.61
2023-01-01T00:37:11.823Z,16.57
2023-01-01T00:38:13.410Z,16.51
2023-01-01T00:39:14.965Z,16.51
2023-01-01T00:40:16.492Z,16.48
2023-01-01T00:41:18.020Z,16.45
2023-01-01T00:42:19.597Z,16.49
2023-01-01T00:43:21.112Z,16.54
2023-01-01T00:44:22.657Z,16.52
2023-01-01T00:45:24.242Z,16.56
2023-01-01T00:46:25.775Z,16.52
2023-01-01T00:47:27.371Z,16.55
2023-01-01T00:48:28.932Z,16.60
2023-01-01T00:49:30.390Z,16.60
2023-01-01T00:50:31.913Z,16.62
2023-01-01T00:51:37.150Z,16.61
2023-01-01T00:52:38.887Z,16.61
2023-01-01T00:53:40.448Z,16.59
2023-01-01T00:54:42.019Z,16.57
2023-01-01T00:55:44.175Z,16.60
2023-01-01T00:56:46.583Z,16.53
2023-01-01T00:57:48.087Z,16.53
2023-01-01T00:59:01.004Z,16.49
2023-01-01T01:00:04.508Z,16.52
2023-01-01T01:01:06.142Z,16.54
2023-01-01T01:02:07.969Z,16.58
2023-01-01T01:03:27.892Z,16.58
2023-01-01T01:04:29.431Z,16.56
2023-01-01T01:05:32.121Z,16.54
2023-01-01T01:06:33.604Z,16.56
2023-01-01T01:07:38.138Z,16.57
2023-01-01T01:08:40.505Z,16.56
2023-01-01T01:09:41.974Z,16.57
2023-01-01T01:10:43.486Z,16.57
2023-01-01T01:11:44.974Z,16.55
2023-01-01T01:12:46.429Z,16.54
2023-01-01T01:13:48.533Z,16.50
2023-01-01T01:14:50.028Z,16.45
2023-01-01T01:15:56.282Z,16.42
2023-01-01T01:16:58.081Z,16.41
2023-01-01T01:17:59.606Z,16.41
2023-01-01T01:19:01.928Z,16.35
2023-01-01T01:20:03.780Z,16.30
2023-01-01T01:21:05.798Z,16.33
2023-01-01T01:22:07.253Z,16.32
2023-01-01T01:23:08.791Z,16.27
2023-01-01T01:24:10.627Z,16.21
2023-01-01T01:25:12.121Z,16.08
2023-01-01T01:26:14.697Z,16.04
2023-01-01T01:27:16.172Z,15.99
2023-01-01T01:28:17.690Z,15.99
2023-01-01T01:29:19.285Z,16.01
2023-01-01T01:30:20.786Z,15.85
2023-01-01T01:31:22.879Z,15.76
2023-01-01T01:32:24.421Z,15.72
2023-01-01T01:33:25.917Z,15.78
2023-01-01T01:34:28.498Z,15.66
2023-01-01T01:35:30.128Z,15.63
2023-01-01T01:36:31.728Z,15.58
2023-01-01T01:37:33.189Z,15.49
2023-01-01T01:38:34.703Z,15.50
2023-01-01T01:39:36.289Z,15.51
2023-01-01T01:40:38.943Z,15.45
2023-01-01T01:41:40.422Z,15.47
2023-01-01T01:42:44.851Z,15.51
2023-01-01T01:43:58.246Z,15.57
2023-01-01T01:45:00.552Z,15.62
2023-01-01T01:46:05.736Z,15.61
2023-01-01T01:47:07.863Z,15.53
2023-01-01T01:48:09.594Z,15.52
2023-01-01T01:49:15.113Z,15.46
2023-01-01T01:50:19.599Z,15.39
2023-01-01T01:51:23.232Z,15.32
2023-01-01T01:52:25.165Z,15.26
2023-01-01T01:53:27.473Z,15.25
2023-01-01T01:54:29.061Z,15.28
2023-01-01T01:55:31.253Z,15.25
2023-01-01T01:56:44.505Z,15.30
2023-01-01T01:57:46.024Z,15.34
2023-01-01T01:58:47.488Z,15.39
2023-01-01T01:59:49.369Z,15.43
2023-01-01T02:00:50.976Z,15.34
2023-01-01T02:01:52.666Z,15.32
2023-01-01T02:02:54.176Z,15.26
2023-01-01T02:03:59.623Z,15.24
2023-01-01T02:05:01.360Z,15.16
2023-01-01T02:06:03.029Z,15.18
2023-01-01T02:07:04.665Z,15.10
2023-01-01T02:08:06.275Z,15.05
2023-01-01T02:09:07.966Z,15.02
2023-01-01T02:10:09.513Z,15.08
2023-01-01T02:11:11.028Z,15.14
2023-01-01T02:12:13.489Z,15.16
2023-01-01T02:13:15.015Z,15.12
2023-01-01T02:14:16.516Z,15.09
2023-01-01T02:15:18.037Z,15.11
2023-01-01T02:16:20.946Z,15.11
2023-01-01T02:17:23.523Z,15.16
2023-01-01T02:18:26.062Z,15.09
2023-01-01T02:19:33.623Z,15.05
2023-01-01T02:21:01.719Z,15.08
2023-01-01T02:22:21.622Z,14.99
2023-01-01T02:23:23.141Z,15.01
2023-01-01T02:24:33.740Z,15.05
2023-01-01T02:25:35.219Z,15.04
2023-01-01T02:26:55.075Z,15.11
2023-01-01T02:27:56.503Z,15.08
2023-01-01T02:28:57.990Z,15.09
2023-01-01T02:30:05.241Z,15.02
2023-01-01T02:31:06.814Z,15.04
2023-01-01T02:32:10.220Z,15.01
2023-01-01T02:33:14.131Z,14.88
2023-01-01T02:34:15.804Z,14.93
2023-01-01T02:35:36.538Z,14.96
2023-01-01T02:36:38.865Z,14.93
2023-01-01T02:37:40.328Z,14.97
2023-01-01T02:38:45.177Z,15.03
2023-01-01T02:39:48.865Z,15.07
2023-01-01T02:40:51.007Z,15.05
2023-01-01T02:41:53.061Z,14.92
2023-01-01T02:42:54.577Z,14.89
2023-01-01T02:44:56.759Z,14.86
2023-01-01T02:45:58.384Z,14.93
2023-01-01T02:47:06.284Z,14.99
2023-01-01T02:48:27.804Z,14.97
2023-01-01T02:49:29.316Z,14.97
2023-01-01T02:50:30.809Z,14.98
2023-01-01T02:51:35.950Z,14.91
2023-01-01T02:52:52.665Z,14.90
2023-01-01T02:54:12.751Z,14.92
2023-01-01T02:55:17.139Z,14.90
2023-01-01T02:56:30.931Z,14.81
2023-01-01T02:57:35.718Z,14.73
2023-01-01T02:59:11.068Z,14.69
2023-01-01T03:00:19.624Z,14.59
2023-01-01T03:01:27.769Z,14.66
2023-01-01T03:02:50.493Z,14.73
2023-01-01T03:04:04.663Z,14.74
2023-01-01T03:05:11.228Z,14.74
2023-01-01T03:06:23.158Z,14.76
2023-01-01T03:07:43.385Z,14.78
2023-01-01T03:08:44.969Z,14.72
2023-01-01T03:09:49.014Z,14.71
2023-01-01T03:10:56.784Z,14.66
2023-01-01T03:12:11.543Z,14.61
2023-01-01T03:13:32.423Z,14.55
2023-01-01T03:14:49.165Z,14.56
2023-01-01T03:15:55.137Z,14.59
2023-01-01T03:17:16.878Z,14.59
2023-01-01T03:18:19.431Z,14.51
2023-01-01T03:19:24.613Z,14.45
2023-01-01T03:20:27.251Z,14.48
2023-01-01T03:21:28.735Z,14.52
2023-01-01T03:22:31.617Z,14.56
2023-01-01T03:23:37.424Z,14.62
2023-01-01T03:24:40.520Z,14.64
2023-01-01T03:25:45.979Z,14.69
2023-01-01T03:26:48.287Z,14.75
2023-01-01T03:27:53.515Z,14.83
2023-01-01T03:28:56.236Z,14.84
2023-01-01T03:29:58.500Z,14.83
2023-01-01T03:31:00.505Z,14.82
2023-01-01T03:32:02.513Z,14.86
2023-01-01T03:33:05.421Z,14.88
2023-01-01T03:34:07.919Z,14.89
2023-01-01T03:35:09.516Z,14.90
2023-01-01T03:36:12.002Z,14.92
2023-01-01T03:37:15.764Z,14.85
2023-01-01T03:38:17.266Z,14.84
2023-01-01T03:39:26.399Z,14.85
2023-01-01T03:40:27.945Z,14.84
2023-01-01T03:41:47.037Z,14.80
2023-01-01T03:42:52.539Z,14.82
2023-01-01T03:43:54.680Z,14.83
2023-01-01T03:44:58.584Z,14.85
2023-01-01T03:46:00.126Z,14.88
2023-01-01T03:47:01.853Z,14.90
2023-01-01T03:48:05.283Z,14.78
2023-01-01T03:49:07.445Z,14.83
2023-01-01T03:50:09.230Z,14.86
2023-01-01T03:51:15.759Z,14.83
2023-01-01T03:52:36.551Z,14.82
2023-01-01T03:53:41.761Z,14.75
2023-01-01T03:54:56.859Z,14.64
2023-01-01T03:56:06.406Z,14.69
2023-01-01T03:57:26.798Z,14.73
2023-01-01T03:58:32.258Z,14.76
2023-01-01T03:59:35.333Z,14.77
2023-01-01T04:01:05.791Z,14.74
2023-01-01T04:02:07.485Z,14.80
2023-01-01T04:03:14.502Z,14.83
2023-01-01T04:04:16.124Z,14.86
2023-01-01T04:05:18.750Z,14.85
2023-01-01T04:06:20.297Z,14.78
2023-01-01T04:07:22.029Z,14.79
2023-01-01T04:08:23.512Z,14.70
2023-01-01T04:09:25.946Z,14.68
2023-01-01T04:10:27.606Z,14.65
2023-01-01T04:11:49.378Z,14.66
2023-01-01T04:12:51.411Z,14.73
2023-01-01T04:13:52.865Z,14.68
2023-01-01T04:14:54.341Z,14.65
2023-01-01T04:15:55.965Z,14.63
2023-01-01T04:16:57.821Z,14.67
2023-01-01T04:17:59.561Z,14.68
2023-01-01T04:19:01.507Z,14.66
2023-01-01T04:20:03.198Z,14.66
2023-01-01T04:21:04.744Z,14.66
2023-01-01T04:22:06.370Z,14.61
2023-01-01T04:23:07.848Z,14.49
2023-01-01T04:24:10.172Z,14.40
2023-01-01T04:25:11.723Z,14.39
2023-01-01T04:26:15.791Z,14.40
2023-01-01T04:27:17.293Z,14.43
2023-01-01T04:28:19.579Z,14.35
2023-01-01T04:29:21.087Z,14.37
2023-01-01T04:30:22.559Z,14.41
2023-01-01T04:31:24.103Z,14.46
2023-01-01T04:32:25.623Z,14.45
2023-01-01T04:33:27.153Z,14.48
2023-01-01T04:34:28.733Z,14.49
2023-01-01T04:35:30.230Z,14.52
2023-01-01T04:36:31.799Z,14.52
2023-01-01T04:37:35.181Z,14.51
2023-01-01T04:38:36.905Z,14.50
2023-01-01T04:39:38.445Z,14.48
2023-01-01T04:40:39.923Z,14.42
2023-01-01T04:41:41.459Z,14.44
2023-01-01T04:42:43.525Z,14.17
2023-01-01T04:43:50.574Z,14.39
2023-01-01T04:44:52.073Z,14.37
2023-01-01T04:46:00.071Z,14.36
2023-01-01T04:47:01.560Z,14.40
2023-01-01T04:48:06.059Z,14.33
2023-01-01T04:49:07.576Z,14.32
2023-01-01T04:50:09.242Z,14.23
2023-01-01T04:51:11.384Z,14.24
2023-01-01T04:52:12.875Z,14.31
2023-01-01T04:53:14.552Z,14.30
2023-01-01T04:54:16.083Z,14.24
2023-01-01T04:55:17.553Z,14.21
2023-01-01T04:56:20.759Z,14.26
2023-01-01T04:57:22.271Z,14.25
2023-01-01T04:58:24.040Z,14.25
2023-01-01T04:59:25.669Z,14.23
2023-01-01T05:00:27.185Z,14.26
2023-01-01T05:01:29.099Z,14.25
2023-01-01T05:02:30.740Z,14.30
2023-01-01T05:03:32.360Z,14.34
2023-01-01T05:04:33.869Z,14.39
2023-01-01T05:05:35.359Z,14.40
2023-01-01T05:06:37.521Z,14.42
2023-01-01T05:07:39.091Z,14.46
2023-01-01T05:08:41.159Z,14.50
2023-01-01T05:09:42.634Z,14.54
2023-01-01T05:10:44.112Z,14.48
2023-01-01T05:11:45.695Z,14.39
2023-01-01T05:12:47.166Z,14.36
2023-01-01T05:13:49.129Z,14.27
2023-01-01T05:14:50.676Z,14.27
2023-01-01T05:15:52.167Z,14.34
2023-01-01T05:16:53.816Z,14.42
2023-01-01T05:17:55.375Z,14.45
2023-01-01T05:18:56.956Z,14.45
2023-01-01T05:19:59.648Z,14.49
2023-01-01T05:21:01.632Z,14.50
2023-01-01T05:22:10.202Z,14.52
2023-01-01T05:23:12.303Z,14.52
2023-01-01T05:24:13.825Z,14.50
2023-01-01T05:25:15.572Z,14.51
2023-01-01T05:26:17.026Z,14.52
2023-01-01T05:27:18.612Z,14.52
2023-01-01T05:28:20.185Z,14.53
2023-01-01T05:29:24.216Z,14.53
2023-01-01T05:30:25.736Z,14.54
2023-01-01T05:31:28.293Z,14.56
2023-01-01T05:32:29.889Z,14.58
2023-01-01T05:33:31.371Z,14.58
2023-01-01T05:35:33.272Z,14.50
2023-01-01T05:36:38.338Z,14.42
2023-01-01T05:37:40.121Z,14.43
2023-01-01T05:38:41.726Z,14.43
2023-01-01T05:39:43.301Z,14.40
2023-01-01T05:40:44.779Z,14.31
2023-01-01T05:41:46.296Z,14.32
2023-01-01T05:42:47.822Z,14.31
2023-01-01T05:43:49.445Z,14.34
2023-01-01T05:44:50.947Z,14.35
2023-01-01T05:46:05.123Z,14.37
2023-01-01T05:47:06.737Z,14.37
2023-01-01T05:48:08.324Z,14.44
2023-01-01T05:49:12.867Z,14.48
2023-01-01T05:50:14.476Z,14.52
2023-01-01T05:51:17.038Z,14.54
2023-01-01T05:52:23.040Z,14.60
2023-01-01T05:53:28.472Z,14.61
2023-01-01T05:54:29.945Z,14.65
2023-01-01T05:55:31.593Z,14.70
2023-01-01T05:56:33.110Z,14.73
2023-01-01T05:57:35.996Z,14.75
2023-01-01T05:58:39.423Z,14.78
2023-01-01T05:59:40.928Z,14.82
2023-01-01T06:00:42.450Z,14.86
2023-01-01T06:01:46.180Z,14.91
2023-01-01T06:02:49.963Z,14.93
2023-01-01T06:03:51.788Z,14.97
2023-01-01T06:04:53.347Z,15.01
2023-01-01T06:05:54.841Z,15.05
2023-01-01T06:06:56.417Z,15.04
2023-01-01T06:07:57.925Z,15.07
2023-01-01T06:09:00.457Z,15.08
2023-01-01T06:10:02.029Z,15.11
2023-01-01T06:11:04.164Z,15.13
2023-01-01T06:12:05.924Z,15.20
2023-01-01T06:13:12.935Z,15.22
2023-01-01T06:14:14.927Z,15.26
2023-01-01T06:15:16.484Z,15.22
2023-01-01T06:16:18.001Z,15.26
2023-01-01T06:17:19.651Z,15.31
2023-01-01T06:18:21.184Z,15.34
2023-01-01T06:19:22.666Z,15.34
2023-01-01T06:20:24.400Z,15.32
2023-01-01T06:21:26.171Z,15.37
2023-01-01T06:22:27.784Z,15.42
2023-01-01T06:23:29.268Z,15.40
2023-01-01T06:24:36.993Z,15.39
2023-01-01T06:25:41.124Z,15.41
2023-01-01T06:26:42.604Z,15.44
2023-01-01T06:27:44.116Z,15.46
2023-01-01T06:28:45.709Z,15.45
2023-01-01T06:29:47.216Z,15.49
2023-01-01T06:30:48.771Z,15.49
2023-01-01T06:31:50.268Z,15.49
2023-01-01T06:32:53.015Z,15.53
2023-01-01T06:33:54.572Z,15.54
2023-01-01T06:34:56.081Z,15.54
2023-01-01T06:35:57.637Z,15.54
2023-01-01T06:37:04.759Z,15.52
2023-01-01T06:38:08.409Z,15.57
2023-01-01T06:39:09.955Z,15.56
2023-01-01T06:40:11.499Z,15.55
2023-01-01T06:41:13.853Z,15.55
2023-01-01T06:42:15.312Z,15.57
2023-01-01T06:43:16.790Z,15.57
2023-01-01T06:44:18.943Z,15.55
2023-01-01T06:45:20.494Z,15.56
2023-01-01T06:46:24.337Z,15.52
2023-01-01T06:47:25.972Z,15.55
2023-01-01T06:48:30.557Z,15.55
2023-01-01T06:49:32.020Z,15.58
2023-01-01T06:50:33.521Z,15.64
2023-01-01T06:51:42.871Z,15.67
2023-01-01T06:52:44.413Z,15.69
2023-01-01T06:53:46.189Z,15.70
2023-01-01T06:54:47.656Z,15.72
2023-01-01T06:55:55.005Z,15.74
2023-01-01T06:56:58.515Z,15.74
2023-01-01T06:58:00.006Z,15.73
2023-01-01T06:59:01.553Z,15.70
2023-01-01T07:00:03.089Z,15.72
2023-01-01T07:01:08.301Z,15.71
2023-01-01T07:02:10.777Z,15.72
2023-01-01T07:03:12.565Z,15.74
2023-01-01T07:04:14.809Z,15.73
2023-01-01T07:05:16.346Z,15.73
2023-01-01T07:06:17.834Z,15.73
2023-01-01T07:07:19.371Z,15.69
2023-01-01T07:08:20.832Z,15.68
2023-01-01T07:09:22.512Z,15.68
2023-01-01T07:10:23.973Z,15.67
2023-01-01T07:11:25.605Z,15.65
2023-01-01T07:12:27.105Z,15.66
2023-01-01T07:13:29.387Z,15.67
2023-01-01T07:14:30.951Z,15.68
2023-01-01T07:15:32.515Z,15.70
2023-01-01T07:16:34.175Z,15.71
2023-01-01T07:17:35.703Z,15.70
2023-01-01T07:18:38.587Z,15.73
2023-01-01T07:19:40.132Z,15.74
2023-01-01T07:20:41.632Z,15.74
2023-01-01T07:21:43.715Z,15.79
2023-01-01T07:22:45.228Z,15.81
2023-01-01T07:23:46.681Z,15.83
2023-01-01T07:24:48.165Z,15.83
2023-01-01T07:25:50.048Z,15.82
2023-01-01T07:26:51.602Z,15.84
2023-01-01T07:27:53.160Z,15.85
2023-01-01T07:28:55.228Z,15.84
2023-01-01T07:29:58.837Z,15.86
2023-01-01T07:31:00.446Z,15.87
2023-01-01T07:32:02.275Z,15.89
2023-01-01T07:33:03.772Z,15.91
2023-01-01T07:34:05.650Z,15.91
2023-01-01T07:35:07.401Z,15.91
2023-01-01T07:36:08.958Z,15.96
2023-01-01T07:37:10.472Z,15.95
2023-01-01T07:38:12.165Z,15.96
2023-01-01T07:39:13.642Z,15.91
2023-01-01T07:40:15.235Z,15.94
2023-01-01T07:41:16.743Z,15.94
2023-01-01T07:42:18.273Z,15.96
2023-01-01T07:43:19.769Z,15.99
2023-01-01T07:44:21.303Z,16.02
2023-01-01T07:45:22.833Z,16.04
2023-01-01T07:46:24.405Z,16.03
2023-01-01T07:47:26.055Z,16.05
2023-01-01T07:48:27.680Z,16.08
2023-01-01T07:49:29.194Z,16.11
2023-01-01T07:50:31.467Z,16.08
2023-01-01T07:51:33.013Z,16.12
2023-01-01T07:52:34.516Z,16.15
2023-01-01T07:53:36.086Z,16.20
2023-01-01T07:54:37.587Z,16.14
2023-01-01T07:55:39.043Z,16.12
2023-01-01T07:56:40.531Z,16.15
2023-01-01T07:57:42.385Z,16.14
2023-01-01T07:58:43.870Z,16.17
2023-01-01T07:59:45.426Z,16.18
2023-01-01T08:00:48.182Z,16.21
2023-01-01T08:01:49.792Z,16.19
2023-01-01T08:02:51.515Z,16.21
2023-01-01T08:03:53.168Z,16.21
2023-01-01T08:04:54.687Z,16.22
2023-01-01T08:05:56.206Z,16.24
2023-01-01T08:06:57.756Z,16.26
2023-01-01T08:07:59.264Z,16.29
2023-01-01T08:09:00.827Z,16.37
2023-01-01T08:10:03.989Z,16.41
2023-01-01T08:11:05.952Z,16.45
2023-01-01T08:12:07.551Z,16.47
2023-01-01T08:13:09.093Z,16.48
2023-01-01T08:14:10.689Z,16.49
2023-01-01T08:15:12.369Z,16.56
2023-01-01T08:16:13.914Z,16.61
2023-01-01T08:17:15.525Z,16.68
2023-01-01T08:18:17.034Z,16.73
2023-01-01T08:19:18.503Z,16.80
2023-01-01T08:20:20.061Z,16.69
2023-01-01T08:21:21.579Z,16.67
2023-01-01T08:22:23.043Z,16.64
2023-01-01T08:23:24.652Z,16.66
2023-01-01T08:24:26.195Z,16.65
2023-01-01T08:25:27.778Z,16.72
2023-01-01T08:26:32.500Z,16.75
2023-01-01T08:27:34.009Z,16.79
2023-01-01T08:28:35.588Z,16.78
2023-01-01T08:29:37.091Z,16.80
2023-01-01T08:30:38.568Z,16.84
2023-01-01T08:31:41.215Z,16.86
2023-01-01T08:32:42.740Z,16.88
2023-01-01T08:33:44.234Z,16.93
2023-01-01T08:34:45.744Z,16.97
2023-01-01T08:35:53.711Z,16.97
2023-01-01T08:36:55.925Z,16.97
2023-01-01T08:37:57.486Z,16.97
2023-01-01T08:38:59.059Z,16.98
2023-01-01T08:40:00.548Z,16.98
2023-01-01T08:41:02.104Z,17.04
2023-01-01T08:42:08.532Z,17.06
2023-01-01T08:43:13.452Z,17.07
2023-01-01T08:44:14.924Z,17.10
2023-01-01T08:45:16.471Z,17.13
2023-01-01T08:46:17.991Z,17.13
2023-01-01T08:47:20.100Z,17.13
2023-01-01T08:48:27.047Z,17.10
2023-01-01T08:49:32.699Z,17.10
2023-01-01T08:50:34.274Z,17.08
2023-01-01T08:51:35.717Z,17.13
2023-01-01T08:52:37.217Z,17.15
2023-01-01T08:53:38.880Z,17.17
2023-01-01T08:54:40.434Z,17.21
2023-01-01T08:55:41.991Z,17.19
2023-01-01T08:56:43.466Z,17.18
2023-01-01T08:57:44.975Z,17.22
2023-01-01T08:58:46.494Z,17.27
2023-01-01T08:59:47.946Z,17.33
2023-01-01T09:00:49.435Z,17.31
2023-01-01T09:01:51.025Z,17.38
2023-01-01T09:02:52.723Z,17.41
2023-01-01T09:03:54.330Z,17.44
2023-01-01T09:04:55.812Z,17.48
2023-01-01T09:05:57.410Z,17.49
2023-01-01T09:06:58.912Z,17.54
2023-01-01T09:08:00.369Z,17.52
2023-01-01T09:09:01.919Z,17.51
2023-01-01T09:10:03.492Z,17.51
2023-01-01T09:11:04.995Z,17.53
2023-01-01T09:12:08.319Z,17.54
2023-01-01T09:13:10.186Z,17.53
2023-01-01T09:14:11.644Z,17.50
2023-01-01T09:15:16.235Z,17.51
2023-01-01T09:16:17.921Z,17.45
2023-01-01T09:17:19.449Z,17.46
2023-01-01T09:18:20.932Z,17.53
2023-01-01T09:19:22.425Z,17.59
2023-01-01T09:20:23.909Z,17.64
2023-01-01T09:21:25.404Z,17.75
2023-01-01T09:22:26.896Z,17.80
2023-01-01T09:23:28.431Z,17.88
2023-01-01T09:24:29.916Z,17.96
2023-01-01T09:25:31.550Z,17.98
2023-01-01T09:26:33.077Z,18.03
2023-01-01T09:27:34.523Z,18.08
2023-01-01T09:28:36.322Z,18.17
2023-01-01T09:29:37.877Z,18.23
2023-01-01T09:30:39.324Z,18.31
2023-01-01T09:31:40.952Z,18.30
2023-01-01T09:32:42.529Z,18.32
2023-01-01T09:33:44.027Z,18.34
2023-01-01T09:34:51.972Z,18.37
2023-01-01T09:35:53.909Z,18.42
2023-01-01T09:36:55.357Z,18.46
2023-01-01T09:37:56.929Z,18.47
2023-01-01T09:38:58.828Z,18.48
2023-01-01T09:40:00.368Z,18.52
2023-01-01T09:41:09.153Z,18.59
2023-01-01T09:42:16.933Z,18.69
2023-01-01T09:43:24.066Z,18.77
2023-01-01T09:44:44.175Z,18.80
2023-01-01T09:46:06.509Z,18.86
2023-01-01T09:47:13.758Z,18.94
2023-01-01T09:48:15.223Z,19.00
2023-01-01T09:49:18.854Z,19.02
2023-01-01T09:50:21.392Z,19.01
2023-01-01T09:51:22.938Z,18.97
2023-01-01T09:52:24.431Z,19.01
2023-01-01T09:53:28.703Z,19.03
2023-01-01T09:54:40.964Z,19.09
2023-01-01T09:55:58.182Z,19.06
2023-01-01T09:57:00.103Z,19.15
2023-01-01T09:58:01.627Z,19.20
2023-01-01T09:59:03.224Z,19.26
2023-01-01T10:00:06.678Z,19.31
2023-01-01T10:01:34.531Z,19.35
2023-01-01T10:02:59.396Z,19.47
2023-01-01T10:04:19.401Z,19.56
2023-01-01T10:05:32.314Z,19.62
2023-01-01T10:06:34.131Z,19.69
2023-01-01T10:07:38.313Z,19.67
2023-01-01T10:08:53.527Z,19.67
2023-01-01T10:09:57.534Z,19.69
2023-01-01T10:10:59.002Z,19.72
2023-01-01T10:12:03.521Z,19.76
2023-01-01T10:13:08.720Z,19.84
2023-01-01T10:14:18.853Z,19.94
2023-01-01T10:15:22.613Z,20.04
2023-01-01T10:16:37.485Z,20.13
2023-01-01T10:17:43.621Z,20.13
2023-01-01T10:18:45.556Z,20.07
2023-01-01T10:19:50.874Z,20.15
2023-01-01T10:21:18.605Z,20.29
2023-01-01T10:22:24.566Z,20.45
2023-01-01T10:23:27.268Z,20.57
2023-01-01T10:24:34.585Z,20.61
2023-01-01T10:25:36.121Z,20.59
2023-01-01T10:26:37.591Z,20.69
2023-01-01T10:27:39.772Z,20.69
2023-01-01T10:28:44.159Z,20.80
2023-01-01T10:29:46.613Z,20.86
2023-01-01T10:30:48.106Z,20.98
2023-01-01T10:31:49.677Z,21.06
2023-01-01T10:32:52.199Z,21.19
2023-01-01T10:33:53.731Z,21.22
2023-01-01T10:34:55.206Z,21.21
2023-01-01T10:35:56.901Z,21.27
2023-01-01T10:36:59.012Z,21.36
2023-01-01T10:38:00.919Z,21.40
2023-01-01T10:39:02.411Z,21.36
2023-01-01T10:40:05.738Z,21.39
2023-01-01T10:41:08.003Z,21.44
2023-01-01T10:42:14.361Z,21.57
2023-01-01T10:43:15.858Z,21.70
2023-01-01T10:44:18.217Z,21.74
2023-01-01T10:45:28.701Z,21.75
2023-01-01T10:46:32.346Z,21.70
2023-01-01T10:47:34.102Z,21.74
2023-01-01T10:48:36.107Z,21.74
2023-01-01T10:49:48.040Z,21.76
2023-01-01T10:50:52.351Z,21.84
2023-01-01T10:51:53.950Z,21.95
2023-01-01T10:52:58.156Z,22.02
2023-01-01T10:53:59.711Z,22.01
2023-01-01T10:55:01.336Z,22.02
2023-01-01T10:56:02.820Z,22.03
2023-01-01T10:57:33.685Z,22.10
2023-01-01T10:58:56.611Z,22.13
2023-01-01T11:00:16.889Z,21.97
2023-01-01T11:01:18.498Z,21.81
2023-01-01T11:02:20.257Z,21.67
2023-01-01T11:03:22.127Z,21.62
2023-01-01T11:04:23.658Z,21.55
2023-01-01T11:05:25.224Z,21.55
2023-01-01T11:06:26.710Z,21.55
2023-01-01T11:07:29.298Z,21.49
2023-01-01T11:08:31.289Z,21.45
2023-01-01T11:09:32.820Z,21.30
2023-01-01T11:10:34.668Z,21.19
2023-01-01T11:11:45.091Z,21.02
2023-01-01T11:13:04.704Z,20.96
2023-01-01T11:14:14.276Z,20.81
2023-01-01T11:15:22.723Z,20.75
2023-01-01T11:16:24.291Z,20.65
2023-01-01T11:17:26.548Z,20.55
2023-01-01T11:18:35.402Z,20.47
2023-01-01T11:19:37.606Z,20.38
2023-01-01T11:20:39.079Z,20.39
2023-01-01T11:21:45.953Z,20.36
2023-01-01T11:22:50.349Z,20.33
2023-01-01T11:24:07.148Z,20.34
2023-01-01T11:25:17.023Z,20.38
2023-01-01T11:26:18.497Z,20.40
2023-01-01T11:27:23.676Z,20.43
2023-01-01T11:28:26.102Z,20.39
2023-01-01T11:29:28.445Z,20.41
2023-01-01T11:30:29.949Z,20.38
2023-01-01T11:31:35.492Z,20.32
2023-01-01T11:32:37.038Z,20.26
2023-01-01T11:33:43.163Z,20.22
2023-01-01T11:34:44.726Z,20.12
2023-01-01T11:35:48.635Z,20.05
2023-01-01T11:36:50.115Z,20.03
2023-01-01T11:37:52.053Z,20.05
2023-01-01T11:39:05.424Z,20.06
2023-01-01T11:40:07.391Z,20.06
2023-01-01T11:41:08.903Z,19.99
2023-01-01T11:42:10.446Z,20.01
2023-01-01T11:43:14.389Z,19.99
2023-01-01T11:44:26.369Z,19.92
2023-01-01T11:45:32.914Z,19.89
2023-01-01T11:46:37.623Z,19.88
2023-01-01T11:47:39.360Z,19.85
2023-01-01T11:48:43.628Z,19.78
2023-01-01T11:49:45.127Z,19.77
2023-01-01T11:50:53.845Z,19.74
2023-01-01T11:51:56.239Z,19.71
2023-01-01T11:53:01.376Z,19.62
2023-01-01T11:54:21.810Z,19.60
2023-01-01T11:55:42.217Z,19.63
2023-01-01T11:56:43.736Z,19.64
2023-01-01T11:57:53.905Z,19.64
2023-01-01T11:58:56.468Z,19.65
2023-01-01T12:00:01.150Z,19.60
2023-01-01T12:01:04.100Z,19.49
2023-01-01T12:02:07.009Z,19.49
2023-01-01T12:03:12.982Z,19.45
2023-01-01T12:04:17.289Z,19.40
2023-01-01T12:05:25.712Z,19.36
2023-01-01T12:06:29.351Z,19.29
2023-01-01T12:07:31.253Z,19.28
2023-01-01T12:08:51.018Z,19.35
2023-01-01T12:10:13.170Z,19.35
2023-01-01T12:11:20.524Z,19.33
2023-01-01T12:12:25.099Z,19.31
2023-01-01T12:13:28.101Z,19.35
2023-01-01T12:14:55.874Z,19.35
2023-01-01T12:16:07.868Z,19.36
2023-01-01T12:17:20.106Z,19.32
2023-01-01T12:18:23.849Z,19.21
2023-01-01T12:19:26.764Z,19.18
2023-01-01T12:20:35.208Z,19.20
2023-01-01T12:21:36.693Z,19.17
2023-01-01T12:22:38.245Z,19.20
2023-01-01T12:23:39.726Z,19.22
2023-01-01T12:24:41.263Z,19.17
2023-01-01T12:25:43.953Z,19.12
2023-01-01T12:26:52.796Z,19.07
2023-01-01T12:27:56.964Z,19.03
2023-01-01T12:29:10.681Z,19.00
2023-01-01T12:30:21.189Z,18.96
2023-01-01T12:31:25.962Z,18.96
2023-01-01T12:32:27.580Z,19.00
2023-01-01T12:33:41.302Z,19.02
2023-01-01T12:34:52.192Z,19.00
2023-01-01T12:36:00.408Z,19.05
2023-01-01T12:37:01.902Z,19.07
2023-01-01T12:38:22.148Z,19.09
2023-01-01T12:39:55.881Z,19.11
2023-01-01T12:41:00.304Z,19.07
2023-01-01T12:42:07.702Z,19.08
2023-01-01T12:43:12.696Z,18.97
2023-01-01T12:44:32.712Z,18.95
2023-01-01T12:45:34.337Z,18.98
2023-01-01T12:46:44.904Z,18.93
2023-01-01T12:47:46.475Z,18.87
2023-01-01T12:49:06.807Z,18.82
2023-01-01T12:50:08.320Z,18.79
2023-01-01T12:51:12.900Z,18.78
2023-01-01T12:52:17.969Z,18.78
2023-01-01T12:53:19.412Z,18.81
2023-01-01T12:54:41.531Z,18.79
2023-01-01T12:55:46.485Z,18.81
2023-01-01T12:56:47.985Z,18.76
2023-01-01T12:57:51.643Z,18.74
2023-01-01T12:58:58.902Z,18.72
2023-01-01T13:00:01.084Z,18.66
2023-01-01T13:01:11.578Z,18.72
2023-01-01T13:02:18.421Z,18.76
2023-01-01T13:03:21.640Z,18.74
2023-01-01T13:04:23.232Z,18.70
2023-01-01T13:05:26.357Z,18.66
2023-01-01T13:06:28.684Z,18.66
2023-01-01T13:07:39.956Z,18.69
2023-01-01T13:08:41.447Z,18.60
2023-01-01T13:09:45.187Z,18.62
2023-01-01T13:10:47.541Z,18.58
2023-01-01T13:11:59.084Z,18.60
2023-01-01T13:13:00.598Z,18.63
2023-01-01T13:14:02.108Z,18.63
2023-01-01T13:15:23.675Z,18.63
2023-01-01T13:16:37.857Z,18.64
2023-01-01T13:17:39.371Z,18.65
2023-01-01T13:18:40.846Z,18.65
2023-01-01T13:19:42.311Z,18.63
2023-01-01T13:20:56.500Z,18.59
2023-01-01T13:21:57.955Z,18.57
2023-01-01T13:22:59.445Z,18.63
2023-01-01T13:24:02.998Z,18.65
2023-01-01T13:25:05.562Z,18.64
2023-01-01T13:26:20.112Z,18.64
2023-01-01T13:27:41.986Z,18.66
2023-01-01T13:29:09.653Z,18.63
2023-01-01T13:30:29.658Z,18.66
2023-01-01T13:31:40.340Z,18.58
2023-01-01T13:33:00.825Z,18.53
2023-01-01T13:34:21.007Z,18.57
2023-01-01T13:35:22.541Z,18.48
2023-01-01T13:36:24.363Z,18.49
2023-01-01T13:37:26.394Z,18.51
2023-01-01T13:38:46.529Z,18.49
2023-01-01T13:39:51.028Z,18.47
2023-01-01T13:40:53.252Z,18.51
2023-01-01T13:41:54.932Z,18.50
2023-01-01T13:42:59.350Z,18.51
2023-01-01T13:44:03.883Z,18.54
2023-01-01T13:46:01.150Z,18.45
2023-01-01T13:47:07.596Z,18.41
2023-01-01T13:48:14.869Z,18.39
2023-01-01T13:49:19.231Z,18.39
2023-01-01T13:50:22.330Z,18.36
2023-01-01T13:52:03.530Z,18.35